EHKD

De Kooy Airport

Den Helder, The Netherlands
METAR EHKD 180025Z AUTO 35007KT 290V030 9999 OVC028 14/11 Q1023 BLU
Observed Flight Rules
Oct-18 @ 00:25 UTC (20 minutes ago) Marginal Visual Flight Rules
Wind Visibility Clouds
350° at 7 knots 10,000+ meters
  • Overcast at 2,800' AGL
Temperatures Readings
Current 14°C / 57°F
Dewpoint 11°C / 52°F
Humidity 82%
Altimeter 30.21" Hg
Pressure 1023 hPa
Elevation 14
METAR EHKD 180025Z AUTO 35007KT 290V030 9999 OVC028 14/11 Q1023 BLU
Observed Flight Rules
Oct-18 @ 00:25 UTC
(20 minutes ago)
MVFR
Wind Visibility
350° at 7 knots 10,000+ meters
Clouds
  • Overcast at 2,800' AGL
Temperature Dewpoint
14°C / 57°F 11°C / 52°F
Humidity Altimeter Pressure
82% 30.21" Hg 1023 hPa